CheckWX is a tool to help pilots better visualize weather data.  It is not intended as a substitute for an official pre-flight weather briefing.

18:23:27 UTC

BGJN TAF
Ilulissat Airport
Ilulissat, Greenland
TAF BGJN 171400Z 1715/1720 VRB05KT 9999 FEW020

Feb-17@
15:00 UTC

Feb-17 @ 15:00 UTC

Feb-17@
20:00 UTC

Feb-17 @ 20:00 UTC

TAF BGJN 171400Z 1715/1720 VRB05KT 9999 FEW020
Wind
  • Variable at 5 KTS
Visibility
10,000+ meters
Cloud Levels
  • Few at 2,000' AGL